High Point, NC

1:35 PM EDT on May 25, 2015 (GMT -0400)
Between the Lakes | | Change Station
CLOSE
Current Station
Personal Weather Station
Location: High Point, NC
Elevation: 843 ft
Nearby Weather Stations

Elev 843 ft 36.01 °N, 79.97 °W | Updated 13 minutes ago

Partly Cloudy
Partly Cloudy
81.3 °F
Feels Like 91 °F
N
7.8
Wind Variable Wind from SE

Today
High -- | Low -- °F
--% Chance of Precip.
Yesterday
High -- | Low -- °F
Precip. -- in
6:07 AM 8:26 PM
Waxing Crescent, 50% visible
Pressure 30.30 in
Visibility 10.0 miles
Clouds Scattered Clouds 4200 ft
Scattered Clouds 25000 ft
Heat Index 91 °F
Dew Point 80 °F
Humidity 95%
Rainfall 0.00 in
Snow Depth Not available.
UV 10 out of 12
Pollen 8.50 out of 12
Air Quality Not available.
Flu Activity No Activity
METAR KGSO 251654Z 22009KT 10SM SCT042 SCT250 24/13 A3032 RMK AO2 SLP258 T02440128

More Conditions Fewer Conditions

Pressure 30.30 in
Visibility 10.0 miles
Clouds Scattered Clouds 4200 ft
Scattered Clouds 25000 ft
Heat Index 91 °F
Dew Point 80 °F
Humidity 95%
Rainfall 0.00 in
Snow Depth Not available.
UV 10 out of 12
Pollen 8.50 out of 12
Air Quality Not available.
Flu Activity No Activity
METAR KGSO 251654Z 22009KT 10SM SCT042 SCT250 24/13 A3032 RMK AO2 SLP258 T02440128

More Conditions Fewer Conditions

10-Day Weather Forecast

Almanac

Astronomy

May. 25, 2015 Rise Set
Actual Time
Civil Twilight
Nautical Twilight
Astronomical Twilight
Moon
Length of Visible Light
Length of Day
Tomorrow will be .
, % of the Moon is Illuminated

Today's Extremes

State Highs State Lows

Community

WunderPhotos

Upload Photos

1,824,070 photos uploaded!

WunderBlogs® & News

Nearby

Air Quality

  Air Quality AQ Index Pollutant
Not available.

Snow Depth

Station Depth Elevation

Earthquake Activity

City Distance Mag. Time & Date
Minimum magnitude displayed is 2.5.

Coastal Water Temperatures

Place Temperature

Stations

Nearby Weather Stations

Station Location Temp. Windchill Dew Point Humidity Wind Precip. Elev Updated Type